Time;durP1;ratioP1;P1;durP2;ratioP2;P2;SDS_P1;SDS_P2;PMS_P1;PMS_P2;Temp;Humidity;BMP_temperature;BMP_pressure;BME280_temperature;BME280_humidity;BME280_pressure;Samples;Min_cycle;Max_cycle;Signal;HPM_P1;HPM_P2
2020/12/07 00:00:40;;;;;;;10.75;6.68;;;2.50;88.40;;;;;;5032160;28;20022;-66
2020/12/07 00:03:06;;;;;;;9.43;6.57;;;2.40;88.50;;;;;;5031490;28;20021;-66
2020/12/07 00:05:32;;;;;;;10.23;6.25;;;2.40;88.50;;;;;;5008427;28;20030;-67
2020/12/07 00:07:58;;;;;;;11.50;6.55;;;2.40;88.60;;;;;;5029284;28;20041;-66
2020/12/07 00:10:23;;;;;;;10.35;6.68;;;2.40;88.60;;;;;;5032102;28;20504;-66
2020/12/07 00:12:49;;;;;;;11.18;6.63;;;2.40;88.70;;;;;;5032325;28;20069;-66
2020/12/07 00:15:15;;;;;;;12.10;7.38;;;2.40;88.80;;;;;;5014148;28;20477;-66
2020/12/07 00:17:40;;;;;;;12.18;7.25;;;2.40;88.70;;;;;;5031589;28;20049;-66
2020/12/07 00:20:07;;;;;;;12.43;7.60;;;2.50;88.70;;;;;;5034732;28;20120;-66
2020/12/07 00:22:33;;;;;;;12.00;7.30;;;2.40;88.60;;;;;;5039293;28;20033;-66
2020/12/07 00:25:00;;;;;;;14.25;8.00;;;2.40;88.70;;;;;;5037812;28;20041;-66
2020/12/07 00:27:33;;;;;;;13.30;8.00;;;2.40;88.80;;;;;;5039185;28;20029;-66
2020/12/07 00:30:00;;;;;;;12.88;7.45;;;2.50;88.80;;;;;;5037370;28;20037;-67
2020/12/07 00:32:27;;;;;;;42.20;8.15;;;2.40;88.60;;;;;;5038831;28;20025;-66
2020/12/07 00:34:54;;;;;;;14.50;8.00;;;2.40;88.70;;;;;;5038536;28;20084;-66
2020/12/07 00:37:20;;;;;;;15.73;8.02;;;2.40;88.70;;;;;;5020567;28;20068;-66
2020/12/07 00:39:46;;;;;;;13.50;8.18;;;2.50;88.70;;;;;;5020202;28;20075;-66
2020/12/07 00:42:12;;;;;;;13.73;7.60;;;2.40;88.70;;;;;;5039034;28;20497;-66
2020/12/07 00:44:39;;;;;;;14.32;7.85;;;2.50;88.70;;;;;;5037948;28;20493;-66
2020/12/07 00:47:06;;;;;;;13.18;7.32;;;2.50;88.70;;;;;;5039017;28;20033;-66
2020/12/07 00:49:32;;;;;;;14.52;8.05;;;2.50;88.70;;;;;;5038042;28;20378;-67
2020/12/07 00:51:58;;;;;;;12.48;7.10;;;2.60;88.70;;;;;;5038128;28;20176;-66
2020/12/07 00:54:24;;;;;;;13.95;7.75;;;2.60;88.70;;;;;;5037995;28;20482;-66
2020/12/07 00:56:53;;;;;;;12.98;7.43;;;2.60;88.70;;;;;;5038767;28;20025;-66
2020/12/07 00:59:19;;;;;;;11.73;7.28;;;2.60;88.70;;;;;;5037508;28;20040;-66
2020/12/07 01:01:45;;;;;;;13.18;7.55;;;2.70;88.70;;;;;;5038031;28;20104;-66
2020/12/07 01:04:11;;;;;;;12.63;7.57;;;2.70;88.60;;;;;;5037868;28;20534;-66
2020/12/07 01:06:36;;;;;;;15.32;8.10;;;2.80;88.50;;;;;;5037284;28;20065;-66
2020/12/07 01:09:02;;;;;;;12.52;7.20;;;2.80;88.40;;;;;;5038154;28;20386;-66
2020/12/07 01:11:28;;;;;;;13.23;7.30;;;2.80;88.30;;;;;;5037184;28;20390;-66
2020/12/07 01:13:53;;;;;;;14.05;7.30;;;2.80;88.30;;;;;;5038640;28;20034;-66
2020/12/07 01:16:25;;;;;;;15.68;7.85;;;2.80;88.40;;;;;;5038384;28;20025;-66
2020/12/07 01:18:52;;;;;;;14.02;7.93;;;2.80;88.40;;;;;;5035165;28;20049;-66
2020/12/07 01:21:18;;;;;;;15.48;7.85;;;2.80;88.40;;;;;;5035121;28;20041;-66
2020/12/07 01:23:45;;;;;;;15.63;8.45;;;2.80;88.40;;;;;;5020162;28;20447;-66
2020/12/07 01:26:15;;;;;;;14.77;8.40;;;2.80;88.40;;;;;;5037870;28;20049;-66
2020/12/07 01:28:43;;;;;;;13.85;8.63;;;2.70;88.40;;;;;;5038597;28;20490;-66
2020/12/07 01:31:09;;;;;;;14.52;8.13;;;2.80;88.40;;;;;;5035731;28;20037;-66
2020/12/07 01:33:35;;;;;;;14.80;8.88;;;2.80;88.30;;;;;;5033927;28;20080;-66
2020/12/07 01:36:00;;;;;;;13.15;8.15;;;2.70;88.30;;;;;;5035594;28;20021;-66
2020/12/07 01:38:26;;;;;;;15.30;9.07;;;2.70;88.40;;;;;;5034451;28;20034;-66
2020/12/07 01:40:52;;;;;;;15.15;8.95;;;2.70;88.40;;;;;;5034739;28;20057;-66
2020/12/07 01:43:18;;;;;;;16.92;9.20;;;2.70;88.50;;;;;;5034725;28;20021;-66
2020/12/07 01:45:45;;;;;;;19.20;9.38;;;2.80;88.60;;;;;;5034715;28;20179;-67
2020/12/07 01:48:11;;;;;;;15.82;9.10;;;2.80;88.60;;;;;;5034453;28;20030;-66
2020/12/07 01:50:39;;;;;;;18.85;10.68;;;2.80;88.50;;;;;;5016464;28;20025;-66
2020/12/07 01:53:05;;;;;;;17.67;9.55;;;2.80;88.60;;;;;;5033802;28;20448;-66
2020/12/07 01:55:31;;;;;;;15.77;8.85;;;2.80;88.60;;;;;;5035207;28;20033;-66
2020/12/07 01:57:57;;;;;;;21.40;10.13;;;2.70;88.50;;;;;;5033937;28;20041;-66
2020/12/07 02:00:23;;;;;;;19.63;9.93;;;2.70;88.60;;;;;;5034561;28;20530;-67
2020/12/07 02:02:50;;;;;;;20.38;9.80;;;2.70;88.70;;;;;;5034073;28;20047;-66
2020/12/07 02:05:16;;;;;;;18.83;9.88;;;2.70;88.90;;;;;;5033930;28;20120;-66
2020/12/07 02:07:42;;;;;;;22.02;11.60;;;2.70;88.90;;;;;;5033847;28;20456;-66
2020/12/07 02:10:07;;;;;;;21.13;10.32;;;2.70;88.80;;;;;;5033059;28;20095;-66
2020/12/07 02:12:33;;;;;;;22.52;11.02;;;2.70;88.80;;;;;;5034497;28;20063;-66
2020/12/07 02:14:58;;;;;;;23.25;11.00;;;2.70;88.90;;;;;;5034075;28;20033;-66
2020/12/07 02:17:24;;;;;;;23.98;11.05;;;2.70;88.80;;;;;;5029791;28;20021;-66
2020/12/07 02:19:50;;;;;;;23.80;12.25;;;2.70;88.80;;;;;;5033586;28;20029;-66
2020/12/07 02:22:16;;;;;;;24.88;12.10;;;2.70;88.90;;;;;;5033910;28;20082;-66
2020/12/07 02:24:41;;;;;;;24.80;11.63;;;2.70;88.90;;;;;;5033902;28;20041;-66
2020/12/07 02:27:09;;;;;;;20.35;10.55;;;2.70;88.80;;;;;;5033841;28;20080;-66
2020/12/07 02:29:35;;;;;;;23.67;11.75;;;2.70;88.90;;;;;;5033093;28;20471;-66
2020/12/07 02:32:12;;;;;;;22.80;11.43;;;2.70;88.90;;;;;;5033621;28;20163;-66
2020/12/07 02:34:39;;;;;;;23.55;11.65;;;2.70;89.00;;;;;;5034189;28;20029;-66
2020/12/07 02:37:05;;;;;;;23.08;12.00;;;2.70;88.90;;;;;;5015782;28;20551;-66
2020/12/07 02:39:31;;;;;;;24.27;11.50;;;2.70;88.90;;;;;;5015606;28;20033;-66
2020/12/07 02:41:56;;;;;;;23.77;11.15;;;2.70;88.90;;;;;;5033875;28;20508;-66
2020/12/07 02:44:22;;;;;;;23.40;11.57;;;2.70;88.90;;;;;;5029570;28;20052;-66
2020/12/07 02:46:47;;;;;;;24.95;12.35;;;2.70;88.90;;;;;;5021073;28;20029;-66
2020/12/07 02:49:13;;;;;;;25.52;12.32;;;2.70;89.00;;;;;;5033131;28;20033;-67
2020/12/07 02:51:38;;;;;;;25.52;12.02;;;2.70;89.10;;;;;;5033136;28;20034;-66
2020/12/07 02:54:04;;;;;;;26.25;12.80;;;2.70;89.10;;;;;;5032682;28;20026;-66
2020/12/07 02:56:29;;;;;;;26.42;13.57;;;2.70;89.10;;;;;;5033614;28;20034;-66
2020/12/07 02:58:55;;;;;;;30.65;13.68;;;2.70;89.00;;;;;;5033099;28;20041;-66
2020/12/07 03:01:20;;;;;;;26.58;13.60;;;2.70;88.80;;;;;;5032747;28;20041;-67
2020/12/07 03:03:46;;;;;;;23.23;12.45;;;2.60;88.90;;;;;;5033370;28;20033;-66
2020/12/07 03:06:11;;;;;;;27.63;12.75;;;2.60;89.10;;;;;;5015424;28;20037;-67
2020/12/07 03:08:37;;;;;;;30.20;14.05;;;2.60;89.20;;;;;;5015305;28;20063;-66
2020/12/07 03:11:05;;;;;;;26.98;13.57;;;2.60;89.10;;;;;;5030616;28;20048;-66
2020/12/07 03:13:30;;;;;;;24.33;12.27;;;2.60;89.20;;;;;;5010913;28;20029;-66
2020/12/07 03:15:56;;;;;;;28.23;12.38;;;2.60;89.20;;;;;;5033313;28;20032;-66
2020/12/07 03:18:21;;;;;;;23.85;11.38;;;2.60;89.20;;;;;;5032995;28;20522;-66
2020/12/07 03:20:47;;;;;;;26.77;12.68;;;2.60;89.20;;;;;;5032474;28;20046;-66
2020/12/07 03:23:13;;;;;;;24.77;10.88;;;2.50;89.20;;;;;;5031753;28;20580;-66
2020/12/07 03:25:38;;;;;;;21.35;10.55;;;2.50;89.20;;;;;;5032466;28;20080;-66
2020/12/07 03:28:04;;;;;;;20.10;9.80;;;2.50;89.30;;;;;;5033176;28;20122;-66
2020/12/07 03:30:29;;;;;;;24.15;12.18;;;2.50;89.40;;;;;;5032310;28;20478;-66
2020/12/07 03:32:55;;;;;;;23.15;11.55;;;2.50;89.30;;;;;;5032321;28;20060;-66
2020/12/07 03:35:20;;;;;;;23.58;10.57;;;2.50;89.30;;;;;;5032500;28;20053;-66
2020/12/07 03:37:46;;;;;;;21.65;10.25;;;2.50;89.30;;;;;;5032811;28;20050;-66
2020/12/07 03:40:11;;;;;;;18.35;9.65;;;2.50;89.40;;;;;;5031536;28;20378;-66
2020/12/07 03:42:37;;;;;;;15.98;9.15;;;2.50;89.40;;;;;;5033409;28;20377;-66
2020/12/07 03:45:03;;;;;;;20.65;10.60;;;2.50;89.50;;;;;;5031533;28;20437;-67
2020/12/07 03:47:28;;;;;;;20.77;10.40;;;2.40;89.40;;;;;;5013221;28;20038;-66
2020/12/07 03:49:54;;;;;;;17.67;8.80;;;2.40;89.30;;;;;;5028496;28;20036;-66
2020/12/07 03:52:19;;;;;;;16.17;9.57;;;2.40;89.30;;;;;;5014669;28;20032;-66
2020/12/07 03:54:45;;;;;;;18.55;9.23;;;2.40;89.40;;;;;;5031720;28;20087;-66
2020/12/07 03:57:11;;;;;;;19.98;8.98;;;2.40;89.40;;;;;;5031880;28;20042;-67
2020/12/07 03:59:36;;;;;;;19.83;10.05;;;2.40;89.40;;;;;;5032186;28;20420;-66
2020/12/07 04:02:02;;;;;;;18.65;9.93;;;2.30;89.30;;;;;;5031523;28;20104;-66
2020/12/07 04:04:35;;;;;;;18.00;8.98;;;2.30;89.40;;;;;;5032705;28;20041;-66
2020/12/07 04:07:01;;;;;;;16.58;8.27;;;2.30;89.50;;;;;;5032294;28;20044;-66
2020/12/07 04:09:26;;;;;;;14.98;7.57;;;2.30;89.50;;;;;;5031393;28;20041;-67
2020/12/07 04:11:52;;;;;;;15.68;7.80;;;2.30;89.50;;;;;;5032570;28;20026;-66
2020/12/07 04:14:17;;;;;;;14.25;7.63;;;2.20;89.60;;;;;;5032117;28;20032;-66
2020/12/07 04:16:43;;;;;;;13.82;7.32;;;2.20;89.70;;;;;;5031960;28;20042;-66
2020/12/07 04:19:08;;;;;;;13.70;7.15;;;2.20;89.70;;;;;;5032120;28;20037;-66
2020/12/07 04:21:34;;;;;;;12.50;6.88;;;2.30;89.80;;;;;;5031965;28;20034;-67
2020/12/07 04:23:59;;;;;;;13.95;7.47;;;2.30;89.70;;;;;;5031341;28;20041;-66
2020/12/07 04:26:25;;;;;;;14.60;6.88;;;2.30;89.70;;;;;;5032292;28;20041;-66
2020/12/07 04:28:50;;;;;;;12.85;7.28;;;2.30;89.60;;;;;;5032214;28;20036;-66
2020/12/07 04:31:16;;;;;;;12.40;7.15;;;2.30;89.70;;;;;;5031038;28;20052;-66
2020/12/07 04:33:42;;;;;;;12.15;6.85;;;2.30;89.70;;;;;;5031027;28;20145;-66
2020/12/07 04:36:07;;;;;;;11.35;7.18;;;2.30;89.90;;;;;;5029960;28;20553;-66
2020/12/07 04:38:33;;;;;;;13.02;6.65;;;2.30;89.80;;;;;;5025510;28;20112;-66
2020/12/07 04:41:01;;;;;;;11.52;6.60;;;2.30;89.80;;;;;;5018144;28;20061;-66
2020/12/07 04:43:27;;;;;;;10.27;6.10;;;2.30;89.80;;;;;;5031964;28;20022;-66
2020/12/07 04:45:53;;;;;;;9.00;5.68;;;2.30;89.70;;;;;;5031506;28;20414;-66
2020/12/07 04:48:20;;;;;;;10.40;5.75;;;2.40;89.80;;;;;;5014369;28;20444;-66
2020/12/07 04:50:46;;;;;;;8.57;5.93;;;2.40;89.80;;;;;;5030487;28;20079;-66
2020/12/07 04:53:13;;;;;;;8.23;5.63;;;2.40;89.80;;;;;;5030711;28;20425;-67
2020/12/07 04:55:39;;;;;;;10.05;5.63;;;2.40;89.90;;;;;;5031692;28;20041;-66
2020/12/07 04:58:06;;;;;;;8.02;5.25;;;2.50;89.80;;;;;;5032143;28;20026;-66
2020/12/07 05:00:32;;;;;;;9.20;5.97;;;2.50;89.80;;;;;;5031043;28;20044;-67
2020/12/07 05:02:59;;;;;;;8.30;4.68;;;2.50;89.80;;;;;;5031867;28;20068;-66
2020/12/07 05:05:25;;;;;;;8.77;5.18;;;2.50;89.80;;;;;;5031016;28;20498;-66
2020/12/07 05:07:52;;;;;;;7.38;4.53;;;2.60;89.90;;;;;;5033861;28;20037;-66
2020/12/07 05:10:29;;;;;;;8.00;5.22;;;2.60;89.70;;;;;;5035603;28;20064;-67
2020/12/07 05:13:37;;;;;;;9.02;4.53;;;2.60;89.70;;;;;;5034795;28;20049;-66
2020/12/07 05:15:43;;;;;;;7.95;4.85;;;2.60;89.60;;;;;;5024271;28;20048;-66
2020/12/07 05:18:09;;;;;;;6.45;4.30;;;2.60;89.50;;;;;;5035123;28;20048;-66
2020/12/07 05:20:35;;;;;;;7.22;4.63;;;2.60;89.60;;;;;;5034994;28;20021;-66
2020/12/07 05:23:01;;;;;;;7.13;4.88;;;2.60;89.60;;;;;;5034531;28;20068;-66
2020/12/07 05:25:28;;;;;;;6.43;4.57;;;2.70;89.70;;;;;;5017132;28;20106;-66
2020/12/07 05:27:57;;;;;;;6.70;4.30;;;2.60;89.60;;;;;;5034939;28;20041;-66
2020/12/07 05:30:27;;;;;;;6.32;4.18;;;2.70;89.60;;;;;;5034795;28;20025;-66
2020/12/07 05:32:52;;;;;;;7.03;4.30;;;2.70;89.50;;;;;;5034619;28;20532;-67
2020/12/07 05:35:18;;;;;;;7.07;4.70;;;2.70;89.50;;;;;;5035479;28;20034;-67
2020/12/07 05:37:43;;;;;;;5.57;4.20;;;2.70;89.50;;;;;;5034616;28;20049;-67
2020/12/07 05:40:12;;;;;;;6.68;4.53;;;2.70;89.50;;;;;;5027270;28;20096;-66
2020/12/07 05:42:38;;;;;;;5.40;4.03;;;2.70;89.50;;;;;;5034969;28;20025;-66
2020/12/07 05:45:06;;;;;;;6.50;4.32;;;2.80;89.60;;;;;;5034801;28;20049;-67
2020/12/07 05:47:33;;;;;;;6.00;4.40;;;2.80;89.40;;;;;;5034997;28;20394;-66
2020/12/07 05:50:00;;;;;;;6.65;4.05;;;2.80;89.30;;;;;;5034690;28;20053;-67
2020/12/07 05:52:37;;;;;;;6.85;4.03;;;2.90;89.30;;;;;;5034052;28;20026;-67
2020/12/07 05:55:03;;;;;;;6.05;4.03;;;2.90;89.30;;;;;;5016411;28;20021;-65
2020/12/07 05:57:31;;;;;;;6.97;4.03;;;2.90;89.30;;;;;;5034339;28;20025;-65
2020/12/07 06:00:05;;;;;;;9.88;4.03;;;2.90;89.30;;;;;;5031160;28;20030;-65
2020/12/07 06:02:30;;;;;;;4.70;3.58;;;2.90;89.30;;;;;;5035015;28;20025;-67
2020/12/07 06:04:57;;;;;;;7.35;5.22;;;3.00;89.30;;;;;;5034234;28;20413;-65
2020/12/07 06:07:27;;;;;;;6.22;3.78;;;3.00;89.20;;;;;;5034489;28;20030;-66
2020/12/07 06:09:54;;;;;;;6.07;3.95;;;3.00;89.20;;;;;;5032214;28;20128;-65
2020/12/07 06:12:29;;;;;;;4.78;3.50;;;3.00;89.00;;;;;;5031531;28;20026;-65
2020/12/07 06:14:55;;;;;;;5.53;3.67;;;3.00;89.00;;;;;;5033265;28;20097;-65
2020/12/07 06:17:29;;;;;;;5.00;3.60;;;3.00;88.90;;;;;;5029894;28;20030;-65
2020/12/07 06:19:54;;;;;;;5.20;3.65;;;3.00;89.00;;;;;;5032252;28;20029;-65
2020/12/07 06:22:22;;;;;;;5.38;3.78;;;2.90;88.90;;;;;;5032935;28;20366;-65
2020/12/07 06:24:50;;;;;;;5.32;3.85;;;3.00;89.00;;;;;;5032567;28;20085;-65
2020/12/07 06:27:16;;;;;;;9.13;5.88;;;3.00;89.00;;;;;;5012485;28;20029;-65
2020/12/07 06:30:05;;;;;;;7.32;4.13;;;2.90;89.00;;;;;;5032454;28;20029;-66
2020/12/07 06:32:48;;;;;;;6.30;4.47;;;2.90;89.10;;;;;;5033064;28;20033;-65
2020/12/07 06:35:14;;;;;;;6.03;4.00;;;2.90;89.10;;;;;;5032139;28;20029;-66
2020/12/07 06:37:48;;;;;;;6.70;3.95;;;2.90;89.00;;;;;;5016960;28;20120;-66
2020/12/07 06:40:16;;;;;;;9.25;5.05;;;2.90;89.10;;;;;;5031873;28;20061;-66
2020/12/07 06:42:44;;;;;;;6.70;4.75;;;2.90;89.20;;;;;;5033544;28;20029;-66
2020/12/07 06:45:20;;;;;;;7.15;4.60;;;2.90;89.20;;;;;;5033304;28;20041;-66
2020/12/07 06:47:49;;;;;;;6.88;4.70;;;2.90;89.30;;;;;;5033573;28;20033;-65
2020/12/07 06:50:17;;;;;;;9.75;5.80;;;2.90;89.30;;;;;;5031649;28;20130;-66
2020/12/07 06:52:44;;;;;;;14.30;7.13;;;2.90;89.30;;;;;;5033724;28;20164;-66
2020/12/07 06:55:12;;;;;;;12.90;6.40;;;3.00;89.20;;;;;;5014176;28;20033;-65
2020/12/07 06:57:43;;;;;;;16.55;9.25;;;2.90;89.20;;;;;;5038030;28;20033;-66
2020/12/07 07:00:15;;;;;;;10.40;6.72;;;2.90;89.20;;;;;;5034414;28;20359;-66
2020/12/07 07:02:46;;;;;;;6.95;5.00;;;2.90;89.10;;;;;;5016725;28;20033;-66
2020/12/07 07:05:13;;;;;;;8.07;4.68;;;3.00;89.20;;;;;;5032886;28;20123;-65
2020/12/07 07:07:39;;;;;;;6.38;4.88;;;2.90;89.20;;;;;;5032788;28;20039;-66
2020/12/07 07:10:07;;;;;;;6.30;4.60;;;3.00;89.10;;;;;;5031347;28;20033;-65
2020/12/07 07:12:34;;;;;;;6.85;4.40;;;3.00;89.20;;;;;;5031730;28;20033;-66
2020/12/07 07:15:00;;;;;;;6.50;4.97;;;3.00;89.20;;;;;;5032999;28;20359;-66
2020/12/07 07:17:29;;;;;;;8.40;4.72;;;3.00;89.20;;;;;;5031969;28;20038;-66
2020/12/07 07:19:56;;;;;;;8.38;4.95;;;2.90;89.10;;;;;;5031727;28;20025;-65
2020/12/07 07:22:23;;;;;;;6.57;4.05;;;3.00;89.20;;;;;;5014556;28;20038;-65
2020/12/07 07:25:01;;;;;;;6.63;4.40;;;3.00;89.20;;;;;;5031809;28;20037;-66
2020/12/07 07:30:13;;;;;;;8.50;5.05;;;3.00;89.00;;;;;;5015295;28;20048;-66
2020/12/07 07:32:44;;;;;;;8.52;5.45;;;3.10;89.10;;;;;;5014994;28;20394;-66
2020/12/07 07:35:10;;;;;;;10.15;5.40;;;3.10;89.10;;;;;;5014351;28;20124;-64
2020/12/07 07:37:37;;;;;;;7.72;4.90;;;3.10;88.90;;;;;;5031601;28;20026;-66
2020/12/07 07:40:07;;;;;;;5.97;4.70;;;3.10;89.00;;;;;;5030487;28;20104;-65
2020/12/07 07:42:43;;;;;;;8.80;5.28;;;3.10;89.00;;;;;;5032953;28;20045;-66
2020/12/07 07:45:09;;;;;;;6.38;4.57;;;3.10;89.00;;;;;;5031488;28;20013;-65
2020/12/07 07:47:54;;;;;;;7.95;4.35;;;3.20;89.10;;;;;;5032442;28;20032;-66
2020/12/07 08:17:50;;;;;;;9.60;5.53;;;3.80;88.50;;;;;;5030921;28;20112;-63
2020/12/07 08:20:18;;;;;;;6.38;5.03;;;3.90;88.30;;;;;;5030981;28;20028;-64
2020/12/07 08:22:55;;;;;;;10.80;5.45;;;3.90;88.20;;;;;;5030841;28;20033;-64
2020/12/07 08:25:20;;;;;;;7.20;4.72;;;4.00;88.20;;;;;;5014231;28;20152;-64
2020/12/07 08:27:46;;;;;;;8.05;4.93;;;4.10;88.20;;;;;;5022281;28;20109;-64
2020/12/07 08:30:12;;;;;;;12.38;5.28;;;4.10;88.20;;;;;;5024762;28;20137;-64
2020/12/07 08:32:38;;;;;;;6.80;4.50;;;4.10;88.00;;;;;;5029910;28;20474;-64
2020/12/07 08:35:13;;;;;;;7.63;4.57;;;4.10;88.00;;;;;;5023422;28;20038;-64
2020/12/07 08:37:43;;;;;;;5.95;4.10;;;4.10;88.10;;;;;;5010623;28;20487;-64
2020/12/07 08:40:08;;;;;;;7.18;4.20;;;4.10;88.00;;;;;;5028536;28;20394;-64
2020/12/07 08:42:34;;;;;;;5.20;4.43;;;4.20;88.20;;;;;;5035346;28;20033;-64
2020/12/07 08:44:59;;;;;;;5.57;4.25;;;4.20;88.20;;;;;;5035308;28;20051;-64
2020/12/07 08:47:25;;;;;;;6.72;4.45;;;4.20;88.10;;;;;;5035902;28;20022;-63
2020/12/07 08:49:50;;;;;;;6.63;4.00;;;4.20;88.00;;;;;;5033043;28;20125;-63
2020/12/07 08:52:16;;;;;;;5.80;3.88;;;4.30;88.10;;;;;;5018040;28;20052;-63
2020/12/07 08:54:42;;;;;;;5.10;3.83;;;4.30;88.00;;;;;;5034793;28;20075;-63
2020/12/07 08:57:07;;;;;;;5.88;3.97;;;4.30;87.90;;;;;;5035536;28;20445;-64
2020/12/07 08:59:33;;;;;;;6.47;4.50;;;4.30;87.80;;;;;;5034102;28;20049;-64
2020/12/07 09:01:58;;;;;;;6.82;4.10;;;4.30;87.90;;;;;;5033720;28;20037;-64
2020/12/07 09:04:24;;;;;;;6.47;3.92;;;4.40;87.80;;;;;;5034628;28;20048;-64
2020/12/07 09:06:52;;;;;;;5.57;4.05;;;4.40;87.70;;;;;;5035272;28;20470;-64
2020/12/07 09:09:18;;;;;;;6.03;4.13;;;4.50;87.90;;;;;;5033543;28;20441;-64
2020/12/07 09:11:45;;;;;;;7.97;4.00;;;4.50;88.00;;;;;;5033299;28;20045;-64
2020/12/07 09:14:11;;;;;;;4.32;3.42;;;4.60;87.90;;;;;;5035086;28;20034;-64
2020/12/07 09:16:37;;;;;;;6.43;4.57;;;4.60;87.60;;;;;;5035373;28;20363;-65
2020/12/07 09:19:02;;;;;;;5.70;3.95;;;4.70;87.50;;;;;;5033432;28;20474;-64
2020/12/07 09:21:28;;;;;;;6.13;3.58;;;4.70;87.60;;;;;;5016654;28;20022;-64
2020/12/07 09:23:53;;;;;;;4.60;3.80;;;4.80;87.60;;;;;;5031117;28;20036;-65
2020/12/07 09:26:19;;;;;;;4.63;3.33;;;4.80;87.50;;;;;;5032636;28;20347;-64
2020/12/07 09:28:44;;;;;;;4.78;3.50;;;4.90;87.60;;;;;;5017871;28;20034;-64
2020/12/07 09:31:10;;;;;;;4.32;3.40;;;5.00;87.60;;;;;;5034644;28;20040;-64
2020/12/07 09:33:35;;;;;;;4.22;3.13;;;5.00;87.40;;;;;;5034124;28;20041;-65
2020/12/07 09:36:05;;;;;;;6.07;3.72;;;5.00;87.20;;;;;;5035500;28;20017;-64
2020/12/07 09:38:31;;;;;;;6.05;3.40;;;5.10;87.30;;;;;;5033648;28;20044;-64
2020/12/07 09:40:58;;;;;;;6.00;3.40;;;5.10;87.20;;;;;;5034643;28;20029;-64
2020/12/07 09:43:23;;;;;;;4.90;3.70;;;5.20;87.10;;;;;;5034968;28;20027;-64
2020/12/07 09:45:49;;;;;;;3.67;3.20;;;5.20;86.90;;;;;;5035191;28;20029;-64
2020/12/07 09:48:14;;;;;;;4.60;3.83;;;5.20;86.80;;;;;;5016499;28;20029;-64
2020/12/07 09:50:40;;;;;;;4.13;3.17;;;5.20;86.70;;;;;;5034823;28;20104;-64
2020/12/07 09:53:08;;;;;;;5.05;3.67;;;5.30;86.60;;;;;;5033531;28;20026;-64
2020/12/07 09:55:34;;;;;;;5.03;3.30;;;5.30;86.60;;;;;;5034665;28;20482;-64
2020/12/07 09:58:00;;;;;;;6.82;3.63;;;5.40;86.70;;;;;;5034394;28;20083;-64
2020/12/07 10:00:26;;;;;;;4.82;3.40;;;5.40;86.60;;;;;;5034318;28;20055;-64
2020/12/07 10:02:52;;;;;;;4.07;3.22;;;5.40;86.50;;;;;;5034202;28;20041;-64
2020/12/07 10:05:17;;;;;;;5.05;3.83;;;5.50;86.60;;;;;;5035270;28;20540;-64
2020/12/07 10:07:43;;;;;;;8.88;5.13;;;5.50;86.50;;;;;;5033825;28;20029;-64
2020/12/07 10:10:08;;;;;;;4.55;3.72;;;5.50;86.60;;;;;;5031496;28;20037;-64
2020/12/07 10:12:34;;;;;;;5.85;3.60;;;5.60;86.50;;;;;;5033925;28;20033;-64
2020/12/07 10:15:01;;;;;;;5.88;3.40;;;5.60;86.20;;;;;;5035026;28;20030;-64
2020/12/07 10:17:27;;;;;;;7.05;3.63;;;5.60;86.20;;;;;;5016107;28;20048;-64
2020/12/07 10:19:52;;;;;;;5.68;3.50;;;5.70;86.30;;;;;;5033762;28;20386;-64
2020/12/07 10:22:18;;;;;;;4.03;3.55;;;5.70;86.30;;;;;;5016865;28;20038;-64
2020/12/07 10:24:43;;;;;;;5.20;3.63;;;5.80;86.20;;;;;;5032941;28;20084;-64
2020/12/07 10:27:09;;;;;;;4.40;3.30;;;5.80;85.80;;;;;;5033937;28;20021;-64
2020/12/07 10:29:35;;;;;;;4.05;2.95;;;5.80;85.80;;;;;;5022761;28;20025;-64
2020/12/07 10:32:00;;;;;;;2.95;2.63;;;5.80;85.70;;;;;;5034483;28;20060;-64
2020/12/07 10:34:26;;;;;;;4.90;2.85;;;5.80;85.70;;;;;;5033747;28;20101;-64
2020/12/07 10:36:51;;;;;;;3.35;2.97;;;5.90;85.80;;;;;;5034429;28;20371;-64
2020/12/07 10:39:17;;;;;;;4.93;3.05;;;5.90;85.60;;;;;;5033410;28;20030;-64
2020/12/07 10:41:42;;;;;;;3.10;2.80;;;6.00;85.60;;;;;;5015722;28;20048;-64
2020/12/07 10:44:08;;;;;;;4.30;2.80;;;6.00;85.10;;;;;;5033669;28;20033;-64
2020/12/07 10:46:37;;;;;;;2.63;2.42;;;5.90;85.00;;;;;;5032670;28;20041;-64
2020/12/07 10:49:06;;;;;;;3.63;3.05;;;5.90;84.90;;;;;;5030377;28;20478;-64
2020/12/07 10:51:32;;;;;;;5.60;3.20;;;5.90;84.80;;;;;;5022279;28;20494;-64
2020/12/07 10:53:59;;;;;;;3.47;3.00;;;5.80;84.40;;;;;;5016618;28;20052;-64
2020/12/07 10:56:25;;;;;;;4.95;3.13;;;5.80;84.50;;;;;;5023163;28;20026;-64
2020/12/07 10:58:50;;;;;;;5.18;2.65;;;5.80;84.60;;;;;;5032911;28;20513;-64
2020/12/07 11:01:17;;;;;;;4.60;2.72;;;5.70;84.80;;;;;;5033122;28;20025;-64
2020/12/07 11:03:42;;;;;;;4.65;2.70;;;5.70;84.90;;;;;;5032921;28;20025;-64
2020/12/07 11:06:14;;;;;;;4.20;2.70;;;5.80;85.00;;;;;;5032670;28;20402;-64
2020/12/07 11:08:52;;;;;;;4.07;2.83;;;5.80;84.90;;;;;;5033041;28;20038;-64
2020/12/07 11:11:19;;;;;;;3.00;2.55;;;5.80;84.90;;;;;;5033135;28;20099;-64
2020/12/07 11:13:45;;;;;;;3.33;3.03;;;5.70;85.00;;;;;;5032604;28;20017;-64
2020/12/07 11:16:11;;;;;;;3.28;2.97;;;5.80;84.90;;;;;;5033599;28;20130;-64
2020/12/07 11:18:37;;;;;;;4.45;2.92;;;5.80;85.00;;;;;;5027757;28;20029;-64
2020/12/07 11:21:06;;;;;;;3.75;2.28;;;5.80;84.90;;;;;;5032920;28;20021;-64
2020/12/07 11:23:32;;;;;;;3.03;2.50;;;5.70;84.60;;;;;;5033041;28;20034;-64
2020/12/07 11:25:57;;;;;;;2.88;2.60;;;5.70;84.80;;;;;;5027568;28;20151;-63
2020/12/07 11:28:23;;;;;;;4.40;2.63;;;5.70;84.90;;;;;;5032737;28;20075;-64
2020/12/07 11:30:49;;;;;;;3.58;2.53;;;5.70;84.70;;;;;;5032527;28;20034;-64
2020/12/07 11:33:15;;;;;;;3.63;2.80;;;5.60;84.70;;;;;;5032729;28;20071;-64
2020/12/07 11:35:40;;;;;;;5.85;2.90;;;5.60;84.90;;;;;;5033204;28;20042;-64
2020/12/07 11:38:15;;;;;;;2.95;2.63;;;5.60;85.00;;;;;;5038563;22;20063;-83
2020/12/07 11:43:21;;;;;;;4.45;3.50;;;5.60;84.90;;;;;;5050497;28;20040;-85
2020/12/07 11:45:49;;;;;;;6.78;3.08;;;5.60;84.80;;;;;;5029067;28;20021;-85
2020/12/07 11:48:15;;;;;;;3.92;3.42;;;5.60;84.80;;;;;;5017306;28;20079;-85
2020/12/07 11:50:40;;;;;;;3.38;2.97;;;5.60;84.90;;;;;;5045541;28;20057;-85
2020/12/07 11:53:06;;;;;;;3.55;3.22;;;5.60;84.90;;;;;;5024627;28;20512;-83
2020/12/07 11:55:34;;;;;;;3.40;3.10;;;5.60;84.80;;;;;;5028108;28;20040;-84
2020/12/07 11:57:59;;;;;;;3.17;2.88;;;5.70;84.90;;;;;;5034248;28;20119;-85
2020/12/07 12:00:25;;;;;;;4.10;3.17;;;5.70;84.70;;;;;;5033483;28;20116;-85
2020/12/07 12:02:56;;;;;;;3.20;2.90;;;5.70;84.60;;;;;;5034263;28;20503;-84
2020/12/07 12:05:32;;;;;;;3.40;3.10;;;5.70;84.60;;;;;;5032522;28;20029;-84
2020/12/07 12:08:08;;;;;;;5.05;3.22;;;5.70;84.40;;;;;;5037462;28;20116;-86
2020/12/07 12:10:38;;;;;;;5.20;3.40;;;5.70;84.40;;;;;;5021640;28;20123;-85
2020/12/07 12:13:17;;;;;;;5.00;3.30;;;5.70;84.40;;;;;;5015227;28;20109;-83
2020/12/07 12:15:46;;;;;;;4.85;3.40;;;5.70;84.30;;;;;;5025117;28;20501;-84
2020/12/07 12:18:11;;;;;;;4.43;3.42;;;5.70;84.10;;;;;;5032771;28;20115;-85
2020/12/07 12:20:42;;;;;;;4.43;3.70;;;5.70;84.50;;;;;;5033888;28;20065;-85
2020/12/07 12:23:08;;;;;;;4.57;3.47;;;5.70;84.10;;;;;;5027423;28;20029;-85
2020/12/07 12:25:51;;;;;;;5.15;3.28;;;5.70;83.90;;;;;;5032871;28;20067;-85
2020/12/07 12:28:16;;;;;;;4.35;3.90;;;5.80;83.90;;;;;;5020085;28;20037;-86
2020/12/07 12:30:57;;;;;;;5.32;4.30;;;5.80;83.90;;;;;;5050703;28;20032;-86
2020/12/07 12:33:26;;;;;;;3.70;3.40;;;5.90;84.10;;;;;;5024502;28;20025;-85
2020/12/07 12:36:08;;;;;;;4.10;3.70;;;5.90;83.80;;;;;;5031408;28;20032;-85
2020/12/07 12:38:36;;;;;;;4.85;3.90;;;6.00;83.90;;;;;;5033702;28;20048;-86
2020/12/07 12:41:08;;;;;;;4.10;3.70;;;6.00;83.80;;;;;;5032249;28;20493;-85
2020/12/07 12:43:37;;;;;;;4.28;3.50;;;6.00;83.60;;;;;;5033497;28;20508;-85
2020/12/07 12:46:12;;;;;;;4.70;4.03;;;6.00;83.70;;;;;;5016727;28;20437;-86
2020/12/07 12:48:38;;;;;;;4.97;3.67;;;6.00;83.90;;;;;;5032579;28;20119;-86
2020/12/07 12:51:11;;;;;;;5.20;3.92;;;6.00;83.80;;;;;;5032057;28;20597;-86
2020/12/07 12:53:40;;;;;;;4.63;3.45;;;6.00;83.80;;;;;;5033313;28;20025;-85
2020/12/07 12:56:11;;;;;;;3.63;3.28;;;6.00;83.70;;;;;;5031450;28;20029;-86
2020/12/07 12:58:45;;;;;;;3.60;3.22;;;6.00;83.30;;;;;;5014164;28;20124;-87
2020/12/07 13:01:11;;;;;;;5.55;3.65;;;5.90;83.30;;;;;;5012420;28;20026;-85
2020/12/07 13:03:47;;;;;;;6.20;3.85;;;5.80;83.40;;;;;;5028003;28;20033;-86
2020/12/07 13:06:13;;;;;;;5.60;3.80;;;5.80;83.30;;;;;;5051450;28;20024;-85
2020/12/07 13:08:45;;;;;;;6.70;4.93;;;5.70;83.30;;;;;;5019449;28;20037;-85
2020/12/07 13:11:11;;;;;;;4.57;3.63;;;5.70;83.40;;;;;;5026730;28;20037;-85
2020/12/07 13:13:37;;;;;;;5.63;3.95;;;5.70;83.40;;;;;;5051767;28;20452;-85
2020/12/07 13:16:09;;;;;;;4.90;3.35;;;5.60;83.60;;;;;;5051231;28;20025;-86
2020/12/07 13:18:49;;;;;;;6.35;3.88;;;5.60;83.80;;;;;;5026780;28;20061;-85
2020/12/07 13:23:59;;;;;;;4.05;3.22;;;5.70;84.00;;;;;;5049731;28;20028;-85
2020/12/07 13:26:34;;;;;;;4.80;2.90;;;6.00;83.80;;;;;;5032455;28;20098;-85